sensor_id;sensor_type;location;lat;lon;timestamp;P1;durP1;ratioP1;P2;durP2;ratioP2
69989;SDS011;57331;52.054;5.294;2022-10-30T00:00:24;20.10;;;8.13;;
69989;SDS011;57331;52.054;5.294;2022-10-30T00:02:51;21.67;;;8.13;;
69989;SDS011;57331;52.054;5.294;2022-10-30T00:05:19;19.23;;;8.73;;
69989;SDS011;57331;52.054;5.294;2022-10-30T00:07:46;15.43;;;6.90;;
69989;SDS011;57331;52.054;5.294;2022-10-30T00:10:14;24.77;;;8.70;;
69989;SDS011;57331;52.054;5.294;2022-10-30T00:12:41;19.63;;;7.37;;
69989;SDS011;57331;52.054;5.294;2022-10-30T00:15:09;16.50;;;6.25;;
69989;SDS011;57331;52.054;5.294;2022-10-30T00:17:36;20.40;;;7.60;;
69989;SDS011;57331;52.054;5.294;2022-10-30T00:20:03;18.33;;;7.70;;
69989;SDS011;57331;52.054;5.294;2022-10-30T00:22:30;11.93;;;5.88;;
69989;SDS011;57331;52.054;5.294;2022-10-30T00:24:57;20.00;;;7.10;;
69989;SDS011;57331;52.054;5.294;2022-10-30T00:27:24;15.75;;;7.13;;
69989;SDS011;57331;52.054;5.294;2022-10-30T00:29:51;16.48;;;7.72;;
69989;SDS011;57331;52.054;5.294;2022-10-30T00:32:18;15.65;;;6.97;;
69989;SDS011;57331;52.054;5.294;2022-10-30T00:34:45;12.85;;;6.32;;
69989;SDS011;57331;52.054;5.294;2022-10-30T00:37:12;19.43;;;7.10;;
69989;SDS011;57331;52.054;5.294;2022-10-30T00:39:40;23.42;;;7.55;;
69989;SDS011;57331;52.054;5.294;2022-10-30T00:42:09;17.92;;;6.85;;
69989;SDS011;57331;52.054;5.294;2022-10-30T00:44:46;18.75;;;7.93;;
69989;SDS011;57331;52.054;5.294;2022-10-30T00:49:57;18.87;;;6.93;;
69989;SDS011;57331;52.054;5.294;2022-10-30T00:52:32;22.95;;;7.53;;
69989;SDS011;57331;52.054;5.294;2022-10-30T00:55:05;15.65;;;6.95;;
69989;SDS011;57331;52.054;5.294;2022-10-30T00:57:37;24.73;;;7.55;;
69989;SDS011;57331;52.054;5.294;2022-10-30T01:00:05;14.30;;;6.22;;
69989;SDS011;57331;52.054;5.294;2022-10-30T01:02:34;21.53;;;7.40;;
69989;SDS011;57331;52.054;5.294;2022-10-30T01:05:03;15.88;;;7.45;;
69989;SDS011;57331;52.054;5.294;2022-10-30T01:07:31;17.73;;;6.90;;
69989;SDS011;57331;52.054;5.294;2022-10-30T01:09:58;16.45;;;7.78;;
69989;SDS011;57331;52.054;5.294;2022-10-30T01:12:25;27.70;;;8.57;;
69989;SDS011;57331;52.054;5.294;2022-10-30T01:14:54;15.63;;;5.67;;
69989;SDS011;57331;52.054;5.294;2022-10-30T01:21:16;16.77;;;7.47;;
69989;SDS011;57331;52.054;5.294;2022-10-30T01:31:15;15.23;;;6.43;;
69989;SDS011;57331;52.054;5.294;2022-10-30T01:34:13;16.67;;;7.18;;
69989;SDS011;57331;52.054;5.294;2022-10-30T01:36:39;21.95;;;6.90;;
69989;SDS011;57331;52.054;5.294;2022-10-30T01:39:12;16.63;;;7.20;;
69989;SDS011;57331;52.054;5.294;2022-10-30T01:42:07;14.77;;;5.70;;
69989;SDS011;57331;52.054;5.294;2022-10-30T01:44:53;15.77;;;6.80;;
69989;SDS011;57331;52.054;5.294;2022-10-30T01:47:27;17.92;;;7.07;;
69989;SDS011;57331;52.054;5.294;2022-10-30T01:53:03;19.15;;;6.35;;
69989;SDS011;57331;52.054;5.294;2022-10-30T01:56:06;13.83;;;5.83;;
69989;SDS011;57331;52.054;5.294;2022-10-30T01:58:43;20.00;;;7.28;;
69989;SDS011;57331;52.054;5.294;2022-10-30T02:01:40;18.00;;;8.02;;
69989;SDS011;57331;52.054;5.294;2022-10-30T02:04:08;18.73;;;6.30;;
69989;SDS011;57331;52.054;5.294;2022-10-30T02:06:37;15.63;;;5.88;;
69989;SDS011;57331;52.054;5.294;2022-10-30T02:09:06;18.13;;;6.77;;
69989;SDS011;57331;52.054;5.294;2022-10-30T02:11:35;17.60;;;6.80;;
69989;SDS011;57331;52.054;5.294;2022-10-30T02:14:04;20.35;;;6.63;;
69989;SDS011;57331;52.054;5.294;2022-10-30T02:16:33;13.68;;;5.82;;
69989;SDS011;57331;52.054;5.294;2022-10-30T02:19:04;17.38;;;6.47;;
69989;SDS011;57331;52.054;5.294;2022-10-30T02:21:32;19.93;;;6.00;;
69989;SDS011;57331;52.054;5.294;2022-10-30T02:24:00;14.68;;;5.80;;
69989;SDS011;57331;52.054;5.294;2022-10-30T02:26:27;18.17;;;7.88;;
69989;SDS011;57331;52.054;5.294;2022-10-30T02:28:54;23.63;;;6.82;;
69989;SDS011;57331;52.054;5.294;2022-10-30T02:31:21;20.05;;;7.63;;
69989;SDS011;57331;52.054;5.294;2022-10-30T02:33:49;15.37;;;7.30;;
69989;SDS011;57331;52.054;5.294;2022-10-30T02:36:16;18.73;;;7.15;;
69989;SDS011;57331;52.054;5.294;2022-10-30T02:38:45;17.95;;;7.07;;
69989;SDS011;57331;52.054;5.294;2022-10-30T02:41:13;16.67;;;6.68;;
69989;SDS011;57331;52.054;5.294;2022-10-30T02:43:41;19.02;;;7.53;;
69989;SDS011;57331;52.054;5.294;2022-10-30T02:46:08;21.03;;;6.60;;
69989;SDS011;57331;52.054;5.294;2022-10-30T02:48:35;14.70;;;7.00;;
69989;SDS011;57331;52.054;5.294;2022-10-30T02:51:03;16.80;;;7.53;;
69989;SDS011;57331;52.054;5.294;2022-10-30T02:53:32;21.17;;;6.72;;
69989;SDS011;57331;52.054;5.294;2022-10-30T02:56:09;18.30;;;6.93;;
69989;SDS011;57331;52.054;5.294;2022-10-30T02:58:39;14.50;;;6.10;;
69989;SDS011;57331;52.054;5.294;2022-10-30T03:01:08;13.60;;;5.53;;
69989;SDS011;57331;52.054;5.294;2022-10-30T03:03:37;17.98;;;7.03;;
69989;SDS011;57331;52.054;5.294;2022-10-30T03:06:05;15.52;;;6.70;;
69989;SDS011;57331;52.054;5.294;2022-10-30T03:08:34;15.43;;;7.30;;
69989;SDS011;57331;52.054;5.294;2022-10-30T03:11:05;20.70;;;7.40;;
69989;SDS011;57331;52.054;5.294;2022-10-30T03:13:33;11.23;;;5.78;;
69989;SDS011;57331;52.054;5.294;2022-10-30T03:16:02;21.60;;;7.40;;
69989;SDS011;57331;52.054;5.294;2022-10-30T03:18:31;19.70;;;7.38;;
69989;SDS011;57331;52.054;5.294;2022-10-30T03:21:05;13.68;;;5.97;;
69989;SDS011;57331;52.054;5.294;2022-10-30T03:23:34;17.83;;;7.73;;
69989;SDS011;57331;52.054;5.294;2022-10-30T03:26:02;17.33;;;7.10;;
69989;SDS011;57331;52.054;5.294;2022-10-30T03:28:34;15.45;;;6.65;;
69989;SDS011;57331;52.054;5.294;2022-10-30T03:31:09;17.98;;;6.68;;
69989;SDS011;57331;52.054;5.294;2022-10-30T03:33:38;16.70;;;7.05;;
69989;SDS011;57331;52.054;5.294;2022-10-30T03:36:06;20.40;;;7.47;;
69989;SDS011;57331;52.054;5.294;2022-10-30T03:38:35;12.48;;;6.28;;
69989;SDS011;57331;52.054;5.294;2022-10-30T03:41:02;18.00;;;7.57;;
69989;SDS011;57331;52.054;5.294;2022-10-30T03:43:30;14.38;;;6.80;;
69989;SDS011;57331;52.054;5.294;2022-10-30T03:45:57;18.70;;;6.93;;
69989;SDS011;57331;52.054;5.294;2022-10-30T03:48:25;17.83;;;6.57;;
69989;SDS011;57331;52.054;5.294;2022-10-30T03:50:56;15.00;;;6.68;;
69989;SDS011;57331;52.054;5.294;2022-10-30T03:53:26;23.42;;;7.15;;
69989;SDS011;57331;52.054;5.294;2022-10-30T03:55:58;17.95;;;7.03;;
69989;SDS011;57331;52.054;5.294;2022-10-30T03:58:34;15.13;;;5.25;;
69989;SDS011;57331;52.054;5.294;2022-10-30T04:01:05;13.57;;;5.67;;
69989;SDS011;57331;52.054;5.294;2022-10-30T04:03:37;17.08;;;6.80;;
69989;SDS011;57331;52.054;5.294;2022-10-30T04:06:05;18.17;;;7.68;;
69989;SDS011;57331;52.054;5.294;2022-10-30T04:08:33;20.08;;;7.78;;
69989;SDS011;57331;52.054;5.294;2022-10-30T04:11:01;19.05;;;7.30;;
69989;SDS011;57331;52.054;5.294;2022-10-30T04:13:28;18.40;;;8.63;;
69989;SDS011;57331;52.054;5.294;2022-10-30T04:15:56;20.40;;;7.07;;
69989;SDS011;57331;52.054;5.294;2022-10-30T04:18:24;18.08;;;6.82;;
69989;SDS011;57331;52.054;5.294;2022-10-30T04:20:52;16.75;;;6.32;;
69989;SDS011;57331;52.054;5.294;2022-10-30T04:23:20;15.25;;;6.53;;
69989;SDS011;57331;52.054;5.294;2022-10-30T04:25:48;18.40;;;7.30;;
69989;SDS011;57331;52.054;5.294;2022-10-30T04:28:16;20.63;;;8.68;;
69989;SDS011;57331;52.054;5.294;2022-10-30T04:30:45;21.30;;;7.53;;
69989;SDS011;57331;52.054;5.294;2022-10-30T04:33:14;18.63;;;8.10;;
69989;SDS011;57331;52.054;5.294;2022-10-30T04:35:41;16.30;;;7.50;;
69989;SDS011;57331;52.054;5.294;2022-10-30T04:38:13;15.60;;;6.87;;
69989;SDS011;57331;52.054;5.294;2022-10-30T04:40:42;24.13;;;8.40;;
69989;SDS011;57331;52.054;5.294;2022-10-30T04:43:11;18.25;;;7.22;;
69989;SDS011;57331;52.054;5.294;2022-10-30T04:45:40;23.63;;;9.15;;
69989;SDS011;57331;52.054;5.294;2022-10-30T04:48:09;20.95;;;8.13;;
69989;SDS011;57331;52.054;5.294;2022-10-30T04:50:38;18.77;;;7.67;;
69989;SDS011;57331;52.054;5.294;2022-10-30T04:53:06;22.95;;;8.40;;
69989;SDS011;57331;52.054;5.294;2022-10-30T04:55:37;23.17;;;8.18;;
69989;SDS011;57331;52.054;5.294;2022-10-30T04:58:04;16.08;;;8.32;;
69989;SDS011;57331;52.054;5.294;2022-10-30T05:00:36;20.88;;;8.82;;
69989;SDS011;57331;52.054;5.294;2022-10-30T05:03:19;20.23;;;8.33;;
69989;SDS011;57331;52.054;5.294;2022-10-30T05:05:48;21.00;;;8.55;;
69989;SDS011;57331;52.054;5.294;2022-10-30T05:08:22;16.45;;;7.18;;
69989;SDS011;57331;52.054;5.294;2022-10-30T05:10:50;18.75;;;8.57;;
69989;SDS011;57331;52.054;5.294;2022-10-30T05:13:17;18.75;;;7.50;;
69989;SDS011;57331;52.054;5.294;2022-10-30T05:15:44;15.43;;;7.13;;
69989;SDS011;57331;52.054;5.294;2022-10-30T05:18:12;15.45;;;6.10;;
69989;SDS011;57331;52.054;5.294;2022-10-30T05:20:39;20.83;;;8.10;;
69989;SDS011;57331;52.054;5.294;2022-10-30T05:23:08;15.52;;;7.30;;
69989;SDS011;57331;52.054;5.294;2022-10-30T05:25:35;21.02;;;7.85;;
69989;SDS011;57331;52.054;5.294;2022-10-30T05:28:05;19.30;;;7.77;;
69989;SDS011;57331;52.054;5.294;2022-10-30T05:30:39;19.60;;;8.50;;
69989;SDS011;57331;52.054;5.294;2022-10-30T05:33:16;18.48;;;7.00;;
69989;SDS011;57331;52.054;5.294;2022-10-30T05:35:44;20.83;;;8.80;;
69989;SDS011;57331;52.054;5.294;2022-10-30T05:38:12;22.33;;;8.00;;
69989;SDS011;57331;52.054;5.294;2022-10-30T05:40:39;16.33;;;6.77;;
69989;SDS011;57331;52.054;5.294;2022-10-30T05:43:06;17.48;;;6.38;;
69989;SDS011;57331;52.054;5.294;2022-10-30T05:45:33;19.38;;;8.25;;
69989;SDS011;57331;52.054;5.294;2022-10-30T05:48:05;16.88;;;7.28;;
69989;SDS011;57331;52.054;5.294;2022-10-30T05:50:39;22.35;;;9.45;;
69989;SDS011;57331;52.054;5.294;2022-10-30T05:53:23;26.00;;;10.27;;
69989;SDS011;57331;52.054;5.294;2022-10-30T05:55:54;22.90;;;10.98;;
69989;SDS011;57331;52.054;5.294;2022-10-30T05:58:23;24.42;;;10.57;;
69989;SDS011;57331;52.054;5.294;2022-10-30T06:00:53;24.90;;;8.65;;
69989;SDS011;57331;52.054;5.294;2022-10-30T06:03:34;24.77;;;10.57;;
69989;SDS011;57331;52.054;5.294;2022-10-30T06:06:02;26.67;;;10.33;;
69989;SDS011;57331;52.054;5.294;2022-10-30T06:08:29;26.70;;;10.57;;
69989;SDS011;57331;52.054;5.294;2022-10-30T06:11:00;21.90;;;10.82;;
69989;SDS011;57331;52.054;5.294;2022-10-30T06:13:36;29.75;;;10.10;;
69989;SDS011;57331;52.054;5.294;2022-10-30T06:16:10;27.42;;;11.68;;
69989;SDS011;57331;52.054;5.294;2022-10-30T06:19:00;29.33;;;11.00;;
69989;SDS011;57331;52.054;5.294;2022-10-30T06:21:28;21.02;;;9.10;;
69989;SDS011;57331;52.054;5.294;2022-10-30T06:24:13;27.17;;;10.02;;
69989;SDS011;57331;52.054;5.294;2022-10-30T06:26:58;30.58;;;10.50;;
69989;SDS011;57331;52.054;5.294;2022-10-30T06:29:26;21.20;;;8.63;;
69989;SDS011;57331;52.054;5.294;2022-10-30T06:31:53;26.67;;;10.20;;
69989;SDS011;57331;52.054;5.294;2022-10-30T06:34:21;24.08;;;8.75;;
69989;SDS011;57331;52.054;5.294;2022-10-30T06:36:50;24.08;;;8.88;;
69989;SDS011;57331;52.054;5.294;2022-10-30T06:39:17;23.88;;;9.70;;
69989;SDS011;57331;52.054;5.294;2022-10-30T06:42:07;21.95;;;8.70;;
69989;SDS011;57331;52.054;5.294;2022-10-30T06:45:04;19.97;;;9.23;;
69989;SDS011;57331;52.054;5.294;2022-10-30T06:47:35;20.60;;;9.95;;
69989;SDS011;57331;52.054;5.294;2022-10-30T06:50:03;34.13;;;10.27;;
69989;SDS011;57331;52.054;5.294;2022-10-30T06:52:33;22.80;;;10.13;;
69989;SDS011;57331;52.054;5.294;2022-10-30T06:55:00;24.40;;;10.35;;
69989;SDS011;57331;52.054;5.294;2022-10-30T06:57:52;27.03;;;11.70;;
69989;SDS011;57331;52.054;5.294;2022-10-30T07:00:45;22.80;;;10.88;;
69989;SDS011;57331;52.054;5.294;2022-10-30T07:03:40;26.02;;;9.80;;
69989;SDS011;57331;52.054;5.294;2022-10-30T07:06:07;29.73;;;9.90;;
69989;SDS011;57331;52.054;5.294;2022-10-30T07:08:35;22.02;;;10.13;;
69989;SDS011;57331;52.054;5.294;2022-10-30T07:11:02;23.27;;;10.23;;
69989;SDS011;57331;52.054;5.294;2022-10-30T07:13:32;20.73;;;10.60;;
69989;SDS011;57331;52.054;5.294;2022-10-30T07:16:31;21.73;;;9.60;;
69989;SDS011;57331;52.054;5.294;2022-10-30T07:18:59;24.42;;;10.15;;
69989;SDS011;57331;52.054;5.294;2022-10-30T07:21:30;25.38;;;9.82;;
69989;SDS011;57331;52.054;5.294;2022-10-30T07:23:57;25.57;;;9.63;;
69989;SDS011;57331;52.054;5.294;2022-10-30T07:26:43;27.27;;;11.02;;
69989;SDS011;57331;52.054;5.294;2022-10-30T07:29:46;22.73;;;10.57;;
69989;SDS011;57331;52.054;5.294;2022-10-30T07:32:35;23.30;;;10.45;;
69989;SDS011;57331;52.054;5.294;2022-10-30T07:35:13;29.08;;;10.68;;
69989;SDS011;57331;52.054;5.294;2022-10-30T07:38:06;24.17;;;10.00;;
69989;SDS011;57331;52.054;5.294;2022-10-30T07:40:42;26.30;;;10.55;;
69989;SDS011;57331;52.054;5.294;2022-10-30T07:43:28;37.03;;;11.60;;
69989;SDS011;57331;52.054;5.294;2022-10-30T07:46:14;25.05;;;9.82;;
69989;SDS011;57331;52.054;5.294;2022-10-30T07:49:00;20.75;;;8.50;;
69989;SDS011;57331;52.054;5.294;2022-10-30T07:51:39;19.63;;;9.13;;
69989;SDS011;57331;52.054;5.294;2022-10-30T07:54:06;19.92;;;8.95;;
69989;SDS011;57331;52.054;5.294;2022-10-30T07:56:34;21.02;;;9.02;;
69989;SDS011;57331;52.054;5.294;2022-10-30T07:59:19;25.33;;;10.75;;
69989;SDS011;57331;52.054;5.294;2022-10-30T08:02:07;21.38;;;8.77;;
69989;SDS011;57331;52.054;5.294;2022-10-30T08:04:54;31.57;;;9.87;;
69989;SDS011;57331;52.054;5.294;2022-10-30T08:07:41;19.27;;;9.35;;
69989;SDS011;57331;52.054;5.294;2022-10-30T08:10:08;20.33;;;8.95;;
69989;SDS011;57331;52.054;5.294;2022-10-30T08:12:36;18.10;;;9.32;;
69989;SDS011;57331;52.054;5.294;2022-10-30T08:15:05;22.02;;;9.45;;
69989;SDS011;57331;52.054;5.294;2022-10-30T08:17:39;22.33;;;10.47;;
69989;SDS011;57331;52.054;5.294;2022-10-30T08:20:08;21.35;;;9.75;;
69989;SDS011;57331;52.054;5.294;2022-10-30T08:22:42;18.33;;;8.63;;
69989;SDS011;57331;52.054;5.294;2022-10-30T08:25:14;27.10;;;9.63;;
69989;SDS011;57331;52.054;5.294;2022-10-30T08:28:15;22.25;;;9.27;;
69989;SDS011;57331;52.054;5.294;2022-10-30T08:30:38;16.53;;;8.23;;
69989;SDS011;57331;52.054;5.294;2022-10-30T08:33:10;20.33;;;10.73;;
69989;SDS011;57331;52.054;5.294;2022-10-30T08:36:07;23.88;;;9.95;;
69989;SDS011;57331;52.054;5.294;2022-10-30T08:38:34;21.90;;;9.50;;
69989;SDS011;57331;52.054;5.294;2022-10-30T08:41:11;23.17;;;9.82;;
69989;SDS011;57331;52.054;5.294;2022-10-30T08:43:47;22.13;;;8.93;;
69989;SDS011;57331;52.054;5.294;2022-10-30T08:46:16;22.02;;;9.68;;
69989;SDS011;57331;52.054;5.294;2022-10-30T08:48:42;20.98;;;10.02;;
69989;SDS011;57331;52.054;5.294;2022-10-30T08:51:09;17.45;;;9.05;;
69989;SDS011;57331;52.054;5.294;2022-10-30T08:53:42;20.58;;;9.73;;
69989;SDS011;57331;52.054;5.294;2022-10-30T08:56:12;19.73;;;9.83;;
69989;SDS011;57331;52.054;5.294;2022-10-30T08:59:05;24.20;;;9.30;;
69989;SDS011;57331;52.054;5.294;2022-10-30T09:01:34;21.60;;;10.15;;
69989;SDS011;57331;52.054;5.294;2022-10-30T09:04:14;21.77;;;9.23;;
69989;SDS011;57331;52.054;5.294;2022-10-30T09:07:00;17.83;;;9.93;;
69989;SDS011;57331;52.054;5.294;2022-10-30T09:09:59;24.17;;;10.13;;
69989;SDS011;57331;52.054;5.294;2022-10-30T09:12:30;19.95;;;8.90;;
69989;SDS011;57331;52.054;5.294;2022-10-30T09:14:58;21.00;;;10.50;;
69989;SDS011;57331;52.054;5.294;2022-10-30T09:17:27;15.45;;;9.50;;
69989;SDS011;57331;52.054;5.294;2022-10-30T09:19:54;20.27;;;9.65;;
69989;SDS011;57331;52.054;5.294;2022-10-30T09:22:31;20.73;;;9.83;;
69989;SDS011;57331;52.054;5.294;2022-10-30T09:24:58;22.13;;;9.70;;
69989;SDS011;57331;52.054;5.294;2022-10-30T09:27:45;21.50;;;9.38;;
69989;SDS011;57331;52.054;5.294;2022-10-30T09:30:13;17.17;;;8.50;;
69989;SDS011;57331;52.054;5.294;2022-10-30T09:32:43;23.77;;;9.43;;
69989;SDS011;57331;52.054;5.294;2022-10-30T09:35:14;22.80;;;9.27;;
69989;SDS011;57331;52.054;5.294;2022-10-30T09:37:43;21.40;;;9.23;;
69989;SDS011;57331;52.054;5.294;2022-10-30T09:40:18;20.30;;;9.35;;
69989;SDS011;57331;52.054;5.294;2022-10-30T09:43:13;18.60;;;9.18;;
69989;SDS011;57331;52.054;5.294;2022-10-30T09:56:54;18.83;;;8.77;;
69989;SDS011;57331;52.054;5.294;2022-10-30T10:02:57;23.07;;;9.33;;
69989;SDS011;57331;52.054;5.294;2022-10-30T10:06:05;20.52;;;9.02;;
69989;SDS011;57331;52.054;5.294;2022-10-30T10:09:02;18.83;;;9.45;;
69989;SDS011;57331;52.054;5.294;2022-10-30T10:12:01;21.33;;;9.40;;
69989;SDS011;57331;52.054;5.294;2022-10-30T10:14:37;23.63;;;9.23;;
69989;SDS011;57331;52.054;5.294;2022-10-30T10:17:13;22.73;;;9.20;;
69989;SDS011;57331;52.054;5.294;2022-10-30T10:19:56;23.95;;;7.95;;
69989;SDS011;57331;52.054;5.294;2022-10-30T10:22:25;18.88;;;8.75;;
69989;SDS011;57331;52.054;5.294;2022-10-30T10:25:03;17.00;;;8.27;;
69989;SDS011;57331;52.054;5.294;2022-10-30T10:39:05;21.13;;;8.50;;
69989;SDS011;57331;52.054;5.294;2022-10-30T10:50:30;18.08;;;8.85;;
69989;SDS011;57331;52.054;5.294;2022-10-30T10:53:23;20.02;;;8.90;;
69989;SDS011;57331;52.054;5.294;2022-10-30T10:55:56;15.13;;;8.30;;
69989;SDS011;57331;52.054;5.294;2022-10-30T10:58:29;19.27;;;8.33;;
69989;SDS011;57331;52.054;5.294;2022-10-30T11:01:12;16.00;;;8.60;;
69989;SDS011;57331;52.054;5.294;2022-10-30T11:03:53;23.05;;;9.13;;
69989;SDS011;57331;52.054;5.294;2022-10-30T11:06:27;20.05;;;8.23;;
69989;SDS011;57331;52.054;5.294;2022-10-30T11:09:13;22.45;;;8.55;;
69989;SDS011;57331;52.054;5.294;2022-10-30T11:11:42;19.03;;;8.70;;
69989;SDS011;57331;52.054;5.294;2022-10-30T11:14:13;16.88;;;8.30;;
69989;SDS011;57331;52.054;5.294;2022-10-30T11:19:31;24.65;;;8.93;;
69989;SDS011;57331;52.054;5.294;2022-10-30T11:21:58;19.52;;;8.82;;
69989;SDS011;57331;52.054;5.294;2022-10-30T11:24:30;16.00;;;8.07;;
69989;SDS011;57331;52.054;5.294;2022-10-30T11:27:23;21.52;;;7.70;;
69989;SDS011;57331;52.054;5.294;2022-10-30T11:29:59;16.00;;;7.75;;
69989;SDS011;57331;52.054;5.294;2022-10-30T11:32:31;23.70;;;8.38;;
69989;SDS011;57331;52.054;5.294;2022-10-30T11:37:36;19.87;;;7.50;;
69989;SDS011;57331;52.054;5.294;2022-10-30T11:42:38;18.83;;;7.75;;
69989;SDS011;57331;52.054;5.294;2022-10-30T11:45:15;25.60;;;8.38;;
69989;SDS011;57331;52.054;5.294;2022-10-30T11:47:52;19.67;;;8.23;;
69989;SDS011;57331;52.054;5.294;2022-10-30T11:50:24;19.37;;;7.77;;
69989;SDS011;57331;52.054;5.294;2022-10-30T11:52:55;19.25;;;7.82;;
69989;SDS011;57331;52.054;5.294;2022-10-30T11:55:44;19.90;;;7.07;;
69989;SDS011;57331;52.054;5.294;2022-10-30T12:01:21;19.05;;;7.72;;
69989;SDS011;57331;52.054;5.294;2022-10-30T12:03:50;19.40;;;6.63;;
69989;SDS011;57331;52.054;5.294;2022-10-30T12:08:59;20.10;;;7.72;;
69989;SDS011;57331;52.054;5.294;2022-10-30T12:11:27;22.48;;;9.02;;
69989;SDS011;57331;52.054;5.294;2022-10-30T12:13:56;19.83;;;7.63;;
69989;SDS011;57331;52.054;5.294;2022-10-30T12:16:24;29.00;;;9.97;;
69989;SDS011;57331;52.054;5.294;2022-10-30T12:18:53;24.17;;;7.93;;
69989;SDS011;57331;52.054;5.294;2022-10-30T12:21:35;24.63;;;8.07;;
69989;SDS011;57331;52.054;5.294;2022-10-30T12:24:05;21.13;;;7.32;;
69989;SDS011;57331;52.054;5.294;2022-10-30T12:27:05;21.00;;;8.23;;
69989;SDS011;57331;52.054;5.294;2022-10-30T12:29:57;19.47;;;8.10;;
69989;SDS011;57331;52.054;5.294;2022-10-30T12:32:37;18.45;;;8.38;;
69989;SDS011;57331;52.054;5.294;2022-10-30T12:37:48;19.98;;;7.47;;
69989;SDS011;57331;52.054;5.294;2022-10-30T12:40:20;18.55;;;7.60;;
69989;SDS011;57331;52.054;5.294;2022-10-30T12:45:41;19.63;;;7.47;;
69989;SDS011;57331;52.054;5.294;2022-10-30T12:48:13;20.65;;;6.97;;
69989;SDS011;57331;52.054;5.294;2022-10-30T12:51:09;20.40;;;7.68;;
69989;SDS011;57331;52.054;5.294;2022-10-30T12:53:55;23.77;;;7.40;;
69989;SDS011;57331;52.054;5.294;2022-10-30T12:56:29;23.17;;;8.20;;
69989;SDS011;57331;52.054;5.294;2022-10-30T13:02:25;18.10;;;6.30;;
69989;SDS011;57331;52.054;5.294;2022-10-30T13:04:55;19.40;;;6.63;;
69989;SDS011;57331;52.054;5.294;2022-10-30T13:07:28;20.80;;;8.68;;
69989;SDS011;57331;52.054;5.294;2022-10-30T13:10:14;15.83;;;7.20;;
69989;SDS011;57331;52.054;5.294;2022-10-30T13:12:58;20.02;;;8.63;;
69989;SDS011;57331;52.054;5.294;2022-10-30T13:15:36;24.70;;;8.30;;
69989;SDS011;57331;52.054;5.294;2022-10-30T13:18:12;22.48;;;8.25;;
69989;SDS011;57331;52.054;5.294;2022-10-30T13:20:43;21.50;;;8.00;;
69989;SDS011;57331;52.054;5.294;2022-10-30T13:23:20;24.53;;;8.60;;
69989;SDS011;57331;52.054;5.294;2022-10-30T13:26:02;17.27;;;8.50;;
69989;SDS011;57331;52.054;5.294;2022-10-30T13:28:43;21.63;;;7.90;;
69989;SDS011;57331;52.054;5.294;2022-10-30T13:34:05;21.23;;;7.65;;
69989;SDS011;57331;52.054;5.294;2022-10-30T13:36:50;26.37;;;8.00;;
69989;SDS011;57331;52.054;5.294;2022-10-30T13:39:29;22.75;;;7.43;;
69989;SDS011;57331;52.054;5.294;2022-10-30T13:53:22;22.35;;;8.55;;
69989;SDS011;57331;52.054;5.294;2022-10-30T13:55:54;25.52;;;8.55;;
69989;SDS011;57331;52.054;5.294;2022-10-30T13:58:24;17.48;;;7.93;;
69989;SDS011;57331;52.054;5.294;2022-10-30T14:01:14;21.33;;;8.15;;
69989;SDS011;57331;52.054;5.294;2022-10-30T14:12:44;22.52;;;8.82;;
69989;SDS011;57331;52.054;5.294;2022-10-30T14:15:23;20.02;;;7.90;;
69989;SDS011;57331;52.054;5.294;2022-10-30T14:20:40;23.02;;;8.75;;
69989;SDS011;57331;52.054;5.294;2022-10-30T14:23:18;21.17;;;8.77;;
69989;SDS011;57331;52.054;5.294;2022-10-30T14:28:34;27.50;;;8.27;;
69989;SDS011;57331;52.054;5.294;2022-10-30T14:31:04;19.80;;;7.97;;
69989;SDS011;57331;52.054;5.294;2022-10-30T14:36:12;20.08;;;7.50;;
69989;SDS011;57331;52.054;5.294;2022-10-30T14:41:26;16.35;;;7.70;;
69989;SDS011;57331;52.054;5.294;2022-10-30T14:44:15;20.07;;;8.10;;
69989;SDS011;57331;52.054;5.294;2022-10-30T14:47:13;21.45;;;7.82;;
69989;SDS011;57331;52.054;5.294;2022-10-30T14:49:47;18.75;;;7.95;;
69989;SDS011;57331;52.054;5.294;2022-10-30T14:52:42;18.52;;;8.82;;
69989;SDS011;57331;52.054;5.294;2022-10-30T14:55:32;22.42;;;9.20;;
69989;SDS011;57331;52.054;5.294;2022-10-30T15:00:39;23.83;;;9.02;;
69989;SDS011;57331;52.054;5.294;2022-10-30T15:05:50;27.63;;;9.43;;
69989;SDS011;57331;52.054;5.294;2022-10-30T15:08:54;29.67;;;8.90;;
69989;SDS011;57331;52.054;5.294;2022-10-30T15:14:21;26.08;;;9.80;;
69989;SDS011;57331;52.054;5.294;2022-10-30T15:17:12;23.20;;;9.45;;
69989;SDS011;57331;52.054;5.294;2022-10-30T15:19:48;42.42;;;22.02;;
69989;SDS011;57331;52.054;5.294;2022-10-30T15:22:16;28.45;;;13.15;;
69989;SDS011;57331;52.054;5.294;2022-10-30T15:24:45;20.53;;;10.10;;
69989;SDS011;57331;52.054;5.294;2022-10-30T15:27:14;21.65;;;9.65;;
69989;SDS011;57331;52.054;5.294;2022-10-30T15:29:46;26.40;;;10.85;;
69989;SDS011;57331;52.054;5.294;2022-10-30T15:32:21;24.05;;;9.27;;
69989;SDS011;57331;52.054;5.294;2022-10-30T15:34:56;23.27;;;9.60;;
69989;SDS011;57331;52.054;5.294;2022-10-30T15:37:25;27.77;;;9.03;;
69989;SDS011;57331;52.054;5.294;2022-10-30T15:40:15;19.98;;;9.77;;
69989;SDS011;57331;52.054;5.294;2022-10-30T15:42:45;22.83;;;9.30;;
69989;SDS011;57331;52.054;5.294;2022-10-30T15:45:21;22.40;;;9.10;;
69989;SDS011;57331;52.054;5.294;2022-10-30T15:48:06;27.20;;;9.98;;
69989;SDS011;57331;52.054;5.294;2022-10-30T15:53:42;22.55;;;9.43;;
69989;SDS011;57331;52.054;5.294;2022-10-30T15:56:18;29.42;;;12.50;;
69989;SDS011;57331;52.054;5.294;2022-10-30T15:58:50;21.80;;;10.23;;
69989;SDS011;57331;52.054;5.294;2022-10-30T16:04:13;24.90;;;8.50;;
69989;SDS011;57331;52.054;5.294;2022-10-30T16:06:51;21.70;;;9.02;;
69989;SDS011;57331;52.054;5.294;2022-10-30T16:09:19;16.40;;;6.82;;
69989;SDS011;57331;52.054;5.294;2022-10-30T16:11:47;17.58;;;7.30;;
69989;SDS011;57331;52.054;5.294;2022-10-30T16:14:22;16.77;;;6.70;;
69989;SDS011;57331;52.054;5.294;2022-10-30T16:16:51;12.00;;;6.00;;
69989;SDS011;57331;52.054;5.294;2022-10-30T16:19:23;17.30;;;5.72;;
69989;SDS011;57331;52.054;5.294;2022-10-30T16:21:55;11.35;;;4.38;;
69989;SDS011;57331;52.054;5.294;2022-10-30T16:24:31;14.52;;;4.68;;
69989;SDS011;57331;52.054;5.294;2022-10-30T16:27:03;15.95;;;4.90;;
69989;SDS011;57331;52.054;5.294;2022-10-30T16:29:32;12.57;;;5.13;;
69989;SDS011;57331;52.054;5.294;2022-10-30T16:32:00;9.63;;;4.40;;
69989;SDS011;57331;52.054;5.294;2022-10-30T16:34:28;14.77;;;6.38;;
69989;SDS011;57331;52.054;5.294;2022-10-30T16:37:03;14.93;;;5.45;;
69989;SDS011;57331;52.054;5.294;2022-10-30T16:39:31;12.35;;;5.97;;
69989;SDS011;57331;52.054;5.294;2022-10-30T16:41:59;12.70;;;4.60;;
69989;SDS011;57331;52.054;5.294;2022-10-30T16:44:27;20.55;;;6.95;;
69989;SDS011;57331;52.054;5.294;2022-10-30T16:46:56;11.70;;;5.13;;
69989;SDS011;57331;52.054;5.294;2022-10-30T16:49:49;12.70;;;5.40;;
69989;SDS011;57331;52.054;5.294;2022-10-30T16:52:30;17.77;;;7.22;;
69989;SDS011;57331;52.054;5.294;2022-10-30T16:57:39;17.42;;;5.28;;
69989;SDS011;57331;52.054;5.294;2022-10-30T17:00:21;15.45;;;5.95;;
69989;SDS011;57331;52.054;5.294;2022-10-30T17:02:52;16.77;;;6.18;;
69989;SDS011;57331;52.054;5.294;2022-10-30T17:05:31;25.80;;;8.90;;
69989;SDS011;57331;52.054;5.294;2022-10-30T17:08:00;26.37;;;8.77;;
69989;SDS011;57331;52.054;5.294;2022-10-30T17:10:59;21.25;;;8.00;;
69989;SDS011;57331;52.054;5.294;2022-10-30T17:15:58;22.15;;;7.32;;
69989;SDS011;57331;52.054;5.294;2022-10-30T17:18:50;14.05;;;5.20;;
69989;SDS011;57331;52.054;5.294;2022-10-30T17:21:38;12.97;;;5.03;;